createdAt,value
2017-10-02T00:00:09.079Z,1004.62
2017-10-02T00:01:10.500Z,1004.58
2017-10-02T00:02:11.926Z,1004.58
2017-10-02T00:03:13.354Z,1004.59
2017-10-02T00:04:14.780Z,1004.65
2017-10-02T00:05:16.196Z,1004.63
2017-10-02T00:06:17.615Z,1004.61
2017-10-02T00:07:19.037Z,1004.59
2017-10-02T00:08:20.454Z,1004.56
2017-10-02T00:09:21.873Z,1004.55
2017-10-02T00:10:23.291Z,1004.50
2017-10-02T00:11:24.708Z,1004.47
2017-10-02T00:12:26.123Z,1004.49
2017-10-02T00:13:27.552Z,1004.51
2017-10-02T00:14:28.961Z,1004.50
2017-10-02T00:15:30.389Z,1004.48
2017-10-02T00:16:31.819Z,1004.49
2017-10-02T00:17:33.237Z,1004.47
2017-10-02T00:18:34.667Z,1004.41
2017-10-02T00:19:36.091Z,1004.40
2017-10-02T00:20:37.511Z,1004.43
2017-10-02T00:21:38.929Z,1004.38
2017-10-02T00:22:40.349Z,1004.43
2017-10-02T00:23:41.765Z,1004.38
2017-10-02T00:24:43.186Z,1004.40
2017-10-02T00:25:44.606Z,1004.40
2017-10-02T00:26:46.030Z,1004.40
2017-10-02T00:27:47.444Z,1004.35
2017-10-02T00:28:48.876Z,1004.45
2017-10-02T00:29:50.298Z,1004.37
2017-10-02T00:30:51.717Z,1004.41
2017-10-02T00:31:53.134Z,1004.34
2017-10-02T00:32:54.547Z,1004.43
2017-10-02T00:33:55.965Z,1004.37
2017-10-02T00:34:57.420Z,1004.43
2017-10-02T00:35:58.812Z,1004.39
2017-10-02T00:37:00.238Z,1004.44
2017-10-02T00:38:01.647Z,1004.53
2017-10-02T00:39:03.066Z,1004.51
2017-10-02T00:40:04.491Z,1004.54
2017-10-02T00:41:05.907Z,1004.52
2017-10-02T00:42:07.323Z,1004.52
2017-10-02T00:43:08.736Z,1004.48
2017-10-02T00:44:10.155Z,1004.51
2017-10-02T00:45:11.579Z,1004.54
2017-10-02T00:46:12.996Z,1004.59
2017-10-02T00:47:14.415Z,1004.55
2017-10-02T00:48:15.837Z,1004.58
2017-10-02T00:49:17.261Z,1004.63
2017-10-02T00:50:18.693Z,1004.62
2017-10-02T00:51:20.108Z,1004.61
2017-10-02T00:52:21.526Z,1004.59
2017-10-02T00:53:22.950Z,1004.56
2017-10-02T00:54:24.449Z,1004.54
2017-10-02T00:55:25.863Z,1004.54
2017-10-02T00:56:27.287Z,1004.58
2017-10-02T00:57:28.709Z,1004.43
2017-10-02T00:58:30.138Z,1004.49
2017-10-02T00:59:31.558Z,1004.53
2017-10-02T01:00:32.974Z,1004.43
2017-10-02T01:01:34.481Z,1004.47
2017-10-02T01:02:35.897Z,1004.44
2017-10-02T01:03:37.323Z,1004.37
2017-10-02T01:04:38.748Z,1004.36
2017-10-02T01:05:40.171Z,1004.34
2017-10-02T01:06:41.589Z,1004.38
2017-10-02T01:07:43.017Z,1004.28
2017-10-02T01:08:44.443Z,1004.15
2017-10-02T01:09:45.870Z,1004.10
2017-10-02T01:10:47.293Z,1004.09
2017-10-02T01:11:48.713Z,1004.09
2017-10-02T01:12:50.132Z,1004.04
2017-10-02T01:13:51.554Z,1004.06
2017-10-02T01:14:52.980Z,1004.02
2017-10-02T01:15:54.410Z,1004.02
2017-10-02T01:16:55.830Z,1004.06
2017-10-02T01:17:57.269Z,1004.07
2017-10-02T01:18:58.689Z,1004.05
2017-10-02T01:20:00.114Z,1004.01
2017-10-02T01:21:01.536Z,1004.01
2017-10-02T01:22:02.966Z,1003.94
2017-10-02T01:23:04.391Z,1003.98
2017-10-02T01:24:05.813Z,1003.96
2017-10-02T01:25:07.237Z,1003.96
2017-10-02T01:26:08.663Z,1003.86
2017-10-02T01:27:10.081Z,1003.91
2017-10-02T01:28:11.509Z,1003.74
2017-10-02T01:29:12.931Z,1003.70
2017-10-02T01:30:14.350Z,1003.69
2017-10-02T01:31:15.765Z,1003.69
2017-10-02T01:32:17.193Z,1003.65
2017-10-02T01:33:18.611Z,1003.66
2017-10-02T01:34:20.027Z,1003.57
2017-10-02T01:35:21.448Z,1003.52
2017-10-02T01:36:22.870Z,1003.58
2017-10-02T01:37:24.291Z,1003.59
2017-10-02T01:38:25.710Z,1003.54
2017-10-02T01:39:27.140Z,1003.52
2017-10-02T01:40:28.561Z,1003.54
2017-10-02T01:41:29.988Z,1003.55
2017-10-02T01:42:31.406Z,1003.53
2017-10-02T01:43:32.827Z,1003.46
2017-10-02T01:44:34.243Z,1003.44
2017-10-02T01:45:35.665Z,1003.48
2017-10-02T01:46:37.090Z,1003.43
2017-10-02T01:47:38.510Z,1003.37
2017-10-02T01:48:40.014Z,1003.39
2017-10-02T01:49:41.439Z,1003.43
2017-10-02T01:50:42.856Z,1003.38
2017-10-02T01:51:44.278Z,1003.39
2017-10-02T01:52:45.718Z,1003.36
2017-10-02T01:53:47.143Z,1003.32
2017-10-02T01:54:48.550Z,1003.27
2017-10-02T01:55:49.967Z,1003.32
2017-10-02T01:56:51.382Z,1003.27
2017-10-02T01:57:52.803Z,1003.25
2017-10-02T01:58:54.227Z,1003.29
2017-10-02T01:59:55.648Z,1003.35
2017-10-02T02:00:57.070Z,1003.32
2017-10-02T02:01:58.491Z,1003.37
2017-10-02T02:02:59.907Z,1003.31
2017-10-02T02:04:01.332Z,1003.32
2017-10-02T02:05:02.749Z,1003.30
2017-10-02T02:06:04.168Z,1003.29
2017-10-02T02:07:05.578Z,1003.29
2017-10-02T02:08:07.015Z,1003.28
2017-10-02T02:09:08.444Z,1003.30
2017-10-02T02:10:09.866Z,1003.28
2017-10-02T02:11:11.279Z,1003.20
2017-10-02T02:12:12.695Z,1003.23
2017-10-02T02:13:14.116Z,1003.18
2017-10-02T02:14:15.534Z,1003.09
2017-10-02T02:15:16.948Z,1003.11
2017-10-02T02:16:18.370Z,1003.05
2017-10-02T02:17:19.789Z,1003.04
2017-10-02T02:18:21.207Z,1003.06
2017-10-02T02:19:22.627Z,1003.03
2017-10-02T02:20:24.041Z,1003.03
2017-10-02T02:21:25.459Z,1002.98
2017-10-02T02:22:26.892Z,1002.97
2017-10-02T02:23:28.310Z,1002.88
2017-10-02T02:24:29.726Z,1002.85
2017-10-02T02:25:31.154Z,1002.80
2017-10-02T02:26:32.567Z,1002.81
2017-10-02T02:27:33.985Z,1002.77
2017-10-02T02:28:35.411Z,1002.83
2017-10-02T02:29:36.837Z,1002.86
2017-10-02T02:30:38.259Z,1002.81
2017-10-02T02:31:39.675Z,1002.86
2017-10-02T02:32:41.091Z,1002.80
2017-10-02T02:33:42.531Z,1002.80
2017-10-02T02:34:43.948Z,1002.77
2017-10-02T02:35:45.368Z,1002.65
2017-10-02T02:36:46.799Z,1002.62
2017-10-02T02:37:48.224Z,1002.58
2017-10-02T02:38:49.641Z,1002.56
2017-10-02T02:39:51.059Z,1002.59
2017-10-02T02:40:52.547Z,1002.58
2017-10-02T02:41:53.970Z,1002.58
2017-10-02T02:42:55.392Z,1002.59
2017-10-02T02:43:56.843Z,1002.54
2017-10-02T02:44:58.269Z,1002.47
2017-10-02T02:45:59.687Z,1002.37
2017-10-02T02:47:01.109Z,1002.27
2017-10-02T02:48:02.533Z,1002.21
2017-10-02T02:49:03.960Z,1002.20
2017-10-02T02:50:05.380Z,1002.13
2017-10-02T02:51:06.811Z,1002.11
2017-10-02T02:52:08.229Z,1002.07
2017-10-02T02:53:09.655Z,1002.05
2017-10-02T02:54:11.071Z,1001.99
2017-10-02T02:55:12.503Z,1002.03
2017-10-02T02:56:13.924Z,1002.01
2017-10-02T02:57:15.352Z,1001.99
2017-10-02T02:58:16.771Z,1001.99
2017-10-02T02:59:18.198Z,1001.98
2017-10-02T03:00:19.629Z,1002.02
2017-10-02T03:01:21.064Z,1002.04
2017-10-02T03:02:22.484Z,1002.02
2017-10-02T03:03:23.899Z,1002.09
2017-10-02T03:04:25.314Z,1002.10
2017-10-02T03:05:26.736Z,1002.13
2017-10-02T03:06:28.157Z,1002.12
2017-10-02T03:07:29.573Z,1002.18
2017-10-02T03:08:31.004Z,1002.23
2017-10-02T03:09:32.423Z,1002.22
2017-10-02T03:10:33.840Z,1002.29
2017-10-02T03:11:35.257Z,1002.35
2017-10-02T03:12:36.676Z,1002.34
2017-10-02T03:13:38.094Z,1002.35
2017-10-02T03:14:39.516Z,1002.33
2017-10-02T03:15:40.928Z,1002.33
2017-10-02T03:16:42.347Z,1002.28
2017-10-02T03:17:43.768Z,1002.27
2017-10-02T03:18:45.197Z,1002.24
2017-10-02T03:19:46.619Z,1002.29
2017-10-02T03:20:48.040Z,1002.31
2017-10-02T03:21:49.456Z,1002.32
2017-10-02T03:22:50.912Z,1002.33
2017-10-02T03:23:52.329Z,1002.39
2017-10-02T03:24:53.750Z,1002.36
2017-10-02T03:25:55.176Z,1002.36
2017-10-02T03:26:56.599Z,1002.36
2017-10-02T03:27:58.104Z,1002.35
2017-10-02T03:28:59.534Z,1002.38
2017-10-02T03:30:00.960Z,1002.32
2017-10-02T03:31:02.378Z,1002.32
2017-10-02T03:32:03.797Z,1002.37
2017-10-02T03:33:05.215Z,1002.33
2017-10-02T03:34:06.782Z,1002.25
2017-10-02T03:35:08.181Z,1002.21
2017-10-02T03:36:09.595Z,1002.21
2017-10-02T03:37:11.013Z,1002.13
2017-10-02T03:38:12.436Z,1002.13
2017-10-02T03:39:13.846Z,1002.15
2017-10-02T03:40:15.267Z,1002.04
2017-10-02T03:41:16.693Z,1002.06
2017-10-02T03:42:18.110Z,1002.01
2017-10-02T03:43:19.539Z,1002.01
2017-10-02T03:44:20.977Z,1002.02
2017-10-02T03:45:22.399Z,1002.04
2017-10-02T03:46:23.823Z,1002.00
2017-10-02T03:47:25.257Z,1002.10
2017-10-02T03:48:26.688Z,1002.12
2017-10-02T03:49:28.104Z,1002.07
2017-10-02T03:50:29.522Z,1002.01
2017-10-02T03:51:30.941Z,1001.99
2017-10-02T03:52:32.366Z,1001.96
2017-10-02T03:53:33.790Z,1001.99
2017-10-02T03:54:35.213Z,1001.95
2017-10-02T03:55:36.629Z,1002.01
2017-10-02T03:56:38.045Z,1001.94
2017-10-02T03:57:39.467Z,1001.99
2017-10-02T03:58:40.887Z,1001.97
2017-10-02T03:59:42.303Z,1002.03
2017-10-02T04:00:43.715Z,1002.05
2017-10-02T04:01:45.134Z,1002.02
2017-10-02T04:02:46.550Z,1001.90
2017-10-02T04:03:47.975Z,1001.86
2017-10-02T04:04:49.389Z,1001.89
2017-10-02T04:05:50.817Z,1001.84
2017-10-02T04:06:52.232Z,1001.95
2017-10-02T04:07:53.653Z,1001.86
2017-10-02T04:08:55.071Z,1001.92
2017-10-02T04:09:56.491Z,1001.93
2017-10-02T04:10:57.910Z,1001.89
2017-10-02T04:11:59.326Z,1001.83
2017-10-02T04:13:00.740Z,1001.83
2017-10-02T04:14:02.159Z,1001.86
2017-10-02T04:17:37.271Z,1001.88
2017-10-02T04:18:38.690Z,1001.85
2017-10-02T04:19:40.119Z,1001.86
2017-10-02T04:20:41.539Z,1001.82
2017-10-02T04:21:42.958Z,1001.86
2017-10-02T04:22:44.376Z,1001.85
2017-10-02T04:23:45.797Z,1001.87
2017-10-02T04:24:47.215Z,1001.91
2017-10-02T04:25:48.634Z,1001.83
2017-10-02T04:26:50.060Z,1001.78
2017-10-02T04:27:51.488Z,1001.73
2017-10-02T04:28:52.917Z,1001.74
2017-10-02T04:29:54.336Z,1001.78
2017-10-02T04:30:55.774Z,1001.71
2017-10-02T04:31:57.178Z,1001.76
2017-10-02T04:32:58.595Z,1001.64
2017-10-02T04:34:00.020Z,1001.71
2017-10-02T04:35:01.438Z,1001.72
2017-10-02T04:36:02.856Z,1001.72
2017-10-02T04:37:04.272Z,1001.69
2017-10-02T04:38:05.697Z,1001.69
2017-10-02T04:39:07.120Z,1001.69
2017-10-02T04:40:08.535Z,1001.63
2017-10-02T04:41:10.044Z,1001.60
2017-10-02T04:42:11.871Z,1001.57
2017-10-02T04:43:13.346Z,1001.54
2017-10-02T04:44:14.748Z,1001.62
2017-10-02T04:45:16.190Z,1001.62
2017-10-02T04:46:17.613Z,1001.71
2017-10-02T04:47:19.048Z,1001.60
2017-10-02T04:48:20.465Z,1001.62
2017-10-02T04:49:21.889Z,1001.53
2017-10-02T04:50:23.310Z,1001.63
2017-10-02T04:51:24.726Z,1001.60
2017-10-02T04:52:26.155Z,1001.57
2017-10-02T04:53:27.572Z,1001.56
2017-10-02T04:54:29.054Z,1001.58
2017-10-02T04:55:30.478Z,1001.55
2017-10-02T04:56:31.901Z,1001.49
2017-10-02T04:57:33.317Z,1001.56
2017-10-02T04:58:34.736Z,1001.54
2017-10-02T04:59:36.323Z,1001.54
2017-10-02T05:00:38.069Z,1001.48
2017-10-02T05:01:39.493Z,1001.47
2017-10-02T05:02:40.921Z,1001.52
2017-10-02T05:03:42.337Z,1001.46
2017-10-02T05:04:43.789Z,1001.46
2017-10-02T05:05:45.209Z,1001.40
2017-10-02T05:06:46.626Z,1001.42
2017-10-02T05:07:48.049Z,1001.34
2017-10-02T05:08:49.475Z,1001.37
2017-10-02T05:09:50.899Z,1001.36
2017-10-02T05:10:52.318Z,1001.32
2017-10-02T05:11:53.740Z,1001.29
2017-10-02T05:12:55.158Z,1001.28
2017-10-02T05:13:56.575Z,1001.32
2017-10-02T05:14:58.000Z,1001.28
2017-10-02T05:15:59.414Z,1001.19
2017-10-02T05:17:00.826Z,1001.23
2017-10-02T05:18:02.247Z,1001.24
2017-10-02T05:19:03.671Z,1001.23
2017-10-02T05:20:05.091Z,1001.26
2017-10-02T05:21:06.516Z,1001.19
2017-10-02T05:22:07.936Z,1001.24
2017-10-02T05:23:09.356Z,1001.29
2017-10-02T05:24:10.775Z,1001.26
2017-10-02T05:25:12.197Z,1001.24
2017-10-02T05:26:13.985Z,1001.26
2017-10-02T05:27:15.301Z,1001.26
2017-10-02T05:28:16.706Z,1001.23
2017-10-02T05:29:18.134Z,1001.25
2017-10-02T05:30:19.556Z,1001.22
2017-10-02T05:31:20.971Z,1001.32
2017-10-02T05:32:22.397Z,1001.33
2017-10-02T05:33:23.816Z,1001.35
2017-10-02T05:34:25.238Z,1001.40
2017-10-02T05:35:26.651Z,1001.40
2017-10-02T05:36:28.081Z,1001.48
2017-10-02T05:37:29.498Z,1001.45
2017-10-02T05:38:30.918Z,1001.42
2017-10-02T05:39:33.686Z,1001.41
2017-10-02T05:40:33.700Z,1001.40
2017-10-02T05:41:35.114Z,1001.44
2017-10-02T05:42:36.530Z,1001.39
2017-10-02T05:43:37.947Z,1001.42
2017-10-02T05:44:39.367Z,1001.44
2017-10-02T05:45:40.851Z,1001.39
2017-10-02T05:46:42.319Z,1001.41
2017-10-02T05:47:43.742Z,1001.41
2017-10-02T05:48:45.164Z,1001.42
2017-10-02T05:49:46.590Z,1001.33
2017-10-02T05:50:48.019Z,1001.34
2017-10-02T05:51:50.127Z,1001.36
2017-10-02T05:52:51.559Z,1001.34
2017-10-02T05:53:52.982Z,1001.30
2017-10-02T05:54:54.408Z,1001.26
2017-10-02T05:55:55.823Z,1001.23
2017-10-02T05:56:57.237Z,1001.27
2017-10-02T05:57:58.662Z,1001.28
2017-10-02T05:59:00.081Z,1001.25
2017-10-02T06:00:01.503Z,1001.26
2017-10-02T06:01:02.918Z,1001.22
2017-10-02T06:02:04.343Z,1001.22
2017-10-02T06:03:05.768Z,1001.20
2017-10-02T06:04:07.183Z,1001.18
2017-10-02T06:05:08.612Z,1001.17
2017-10-02T06:06:10.032Z,1001.12
2017-10-02T06:07:11.452Z,1001.15
2017-10-02T06:08:12.872Z,1001.21
2017-10-02T06:09:14.288Z,1001.17
2017-10-02T06:10:15.711Z,1001.16
2017-10-02T06:11:17.134Z,1001.23
2017-10-02T06:12:18.562Z,1001.24
2017-10-02T06:13:19.985Z,1001.26
2017-10-02T06:14:21.407Z,1001.31
2017-10-02T06:15:22.828Z,1001.26
2017-10-02T06:16:24.248Z,1001.28
2017-10-02T06:17:25.667Z,1001.27
2017-10-02T06:18:27.086Z,1001.28
2017-10-02T06:19:28.519Z,1001.27
2017-10-02T06:20:29.938Z,1001.29
2017-10-02T06:21:31.370Z,1001.23
2017-10-02T06:22:32.807Z,1001.28
2017-10-02T06:23:34.233Z,1001.31
2017-10-02T06:24:35.663Z,1001.31
2017-10-02T06:25:37.082Z,1001.30
2017-10-02T06:26:38.495Z,1001.31
2017-10-02T06:27:39.921Z,1001.34
2017-10-02T06:28:41.350Z,1001.30
2017-10-02T06:29:42.768Z,1001.28
2017-10-02T06:30:44.200Z,1001.20
2017-10-02T06:31:45.627Z,1001.21
2017-10-02T06:32:47.047Z,1001.21
2017-10-02T06:33:48.465Z,1001.19
2017-10-02T06:34:49.885Z,1001.14
2017-10-02T06:35:51.307Z,1001.21
2017-10-02T06:36:52.734Z,1001.18
2017-10-02T06:37:54.150Z,1001.21
2017-10-02T06:38:55.574Z,1001.22
2017-10-02T06:39:56.988Z,1001.24
2017-10-02T06:40:58.442Z,1001.23
2017-10-02T06:41:59.860Z,1001.25
2017-10-02T06:43:01.278Z,1001.28
2017-10-02T06:44:02.698Z,1001.24
2017-10-02T06:45:04.128Z,1001.24
2017-10-02T06:46:05.555Z,1001.25
2017-10-02T06:47:06.976Z,1001.29
2017-10-02T06:48:08.399Z,1001.28
2017-10-02T06:49:09.845Z,1001.29
2017-10-02T06:50:11.242Z,1001.30
2017-10-02T06:51:12.664Z,1001.28
2017-10-02T06:52:14.077Z,1001.26
2017-10-02T06:53:15.498Z,1001.21
2017-10-02T06:54:16.928Z,1001.27
2017-10-02T06:55:18.342Z,1001.25
2017-10-02T06:56:19.770Z,1001.37
2017-10-02T06:57:21.202Z,1001.29
2017-10-02T06:58:22.620Z,1001.31
2017-10-02T06:59:24.050Z,1001.27
2017-10-02T07:00:25.464Z,1001.33
2017-10-02T07:01:26.882Z,1001.31
2017-10-02T07:02:28.307Z,1001.32
2017-10-02T07:03:29.728Z,1001.31
2017-10-02T07:04:31.152Z,1001.30
2017-10-02T07:05:32.569Z,1001.29
2017-10-02T07:06:34.000Z,1001.31
2017-10-02T07:07:35.432Z,1001.27
2017-10-02T07:08:36.856Z,1001.32
2017-10-02T07:09:38.282Z,1001.33
2017-10-02T07:10:39.705Z,1001.32
2017-10-02T07:11:41.126Z,1001.30
2017-10-02T07:12:42.548Z,1001.25
2017-10-02T07:13:44.090Z,1001.30
2017-10-02T07:14:45.515Z,1001.34
2017-10-02T07:15:46.944Z,1001.34
2017-10-02T07:16:48.419Z,1001.29
2017-10-02T07:17:49.844Z,1001.30
2017-10-02T07:18:51.270Z,1001.28
2017-10-02T07:19:52.763Z,1001.27
2017-10-02T07:20:54.192Z,1001.25
2017-10-02T07:21:55.609Z,1001.29
2017-10-02T07:22:57.036Z,1001.33
2017-10-02T07:23:58.461Z,1001.35
2017-10-02T07:24:59.885Z,1001.27
2017-10-02T07:26:01.306Z,1001.31
2017-10-02T07:27:02.740Z,1001.24
2017-10-02T07:28:04.167Z,1001.30
2017-10-02T07:29:05.590Z,1001.28
2017-10-02T07:30:07.013Z,1001.23
2017-10-02T07:31:08.438Z,1001.20
2017-10-02T07:32:09.859Z,1001.22
2017-10-02T07:33:11.279Z,1001.17
2017-10-02T07:34:12.697Z,1001.17
2017-10-02T07:35:14.122Z,1001.15
2017-10-02T07:36:15.545Z,1001.13
2017-10-02T07:37:16.969Z,1001.11
2017-10-02T07:38:18.392Z,1001.07
2017-10-02T07:39:19.825Z,1001.06
2017-10-02T07:40:21.247Z,1001.06
2017-10-02T07:41:22.671Z,1001.06
2017-10-02T07:42:24.091Z,1001.08
2017-10-02T07:43:25.524Z,1001.10
2017-10-02T07:44:26.950Z,1001.12
2017-10-02T07:45:28.375Z,1001.14
2017-10-02T07:46:29.794Z,1001.10
2017-10-02T07:47:31.218Z,1001.11
2017-10-02T07:48:32.652Z,1001.11
2017-10-02T07:49:34.076Z,1001.09
2017-10-02T07:50:35.498Z,1001.10
2017-10-02T07:51:36.917Z,1001.09
2017-10-02T07:52:38.337Z,1001.09
2017-10-02T07:53:39.757Z,1001.11
2017-10-02T07:54:41.192Z,1001.10
2017-10-02T07:55:42.617Z,1001.15
2017-10-02T07:56:44.043Z,1001.11
2017-10-02T07:57:45.468Z,1001.12
2017-10-02T07:58:46.884Z,1001.09
2017-10-02T07:59:48.316Z,1001.06
2017-10-02T08:00:49.743Z,1001.13
2017-10-02T08:01:51.169Z,1001.09
2017-10-02T08:02:52.590Z,1001.10
2017-10-02T08:03:54.021Z,1001.13
2017-10-02T08:04:55.443Z,1001.06
2017-10-02T08:05:56.868Z,1000.99
2017-10-02T08:06:58.291Z,1001.01
2017-10-02T08:07:59.719Z,1001.09
2017-10-02T08:09:01.141Z,1001.03
2017-10-02T08:10:02.566Z,1001.07
2017-10-02T08:11:03.989Z,1001.06
2017-10-02T08:12:05.413Z,1001.09
2017-10-02T08:13:06.896Z,1001.04
2017-10-02T08:14:08.327Z,1001.11
2017-10-02T08:15:09.759Z,1001.06
2017-10-02T08:16:11.173Z,1000.99
2017-10-02T08:17:12.644Z,1001.01
2017-10-02T08:18:14.074Z,1001.03
2017-10-02T08:19:15.508Z,1000.99
2017-10-02T08:20:16.934Z,1001.06
2017-10-02T08:21:18.438Z,1001.13
2017-10-02T08:22:19.881Z,1001.17
2017-10-02T08:23:21.299Z,1001.07
2017-10-02T08:24:22.732Z,1001.11
2017-10-02T08:25:24.160Z,1001.13
2017-10-02T08:26:25.580Z,1001.10
2017-10-02T08:27:27.005Z,1001.12
2017-10-02T08:28:28.493Z,1001.08
2017-10-02T08:29:29.914Z,1001.10
2017-10-02T08:30:31.386Z,1001.11
2017-10-02T08:31:32.815Z,1001.09
2017-10-02T08:32:34.246Z,1001.14
2017-10-02T08:33:35.678Z,1001.15
2017-10-02T08:34:37.090Z,1001.14
2017-10-02T08:35:38.516Z,1001.14
2017-10-02T08:36:39.949Z,1001.14
2017-10-02T08:37:41.372Z,1001.16
2017-10-02T08:38:42.795Z,1001.14
2017-10-02T08:39:44.219Z,1001.08
2017-10-02T08:40:45.649Z,1001.05
2017-10-02T08:41:47.071Z,1001.15
2017-10-02T08:42:48.495Z,1001.10
2017-10-02T08:43:49.919Z,1001.13
2017-10-02T08:44:51.350Z,1001.19
2017-10-02T08:45:52.777Z,1001.14
2017-10-02T08:46:54.203Z,1001.13
2017-10-02T08:47:55.647Z,1001.12
2017-10-02T08:48:57.052Z,1001.16
2017-10-02T08:49:58.479Z,1001.13
2017-10-02T08:50:59.917Z,1001.15
2017-10-02T08:52:02.266Z,1001.20
2017-10-02T08:53:03.711Z,1001.19
2017-10-02T08:54:05.115Z,1001.11
2017-10-02T08:55:06.533Z,1001.04
2017-10-02T08:56:07.967Z,1000.99
2017-10-02T08:57:09.388Z,1000.98
2017-10-02T08:58:10.811Z,1000.97
2017-10-02T08:59:12.234Z,1000.95
2017-10-02T09:00:13.663Z,1000.93
2017-10-02T09:01:15.094Z,1000.88
2017-10-02T09:02:16.527Z,1000.88
2017-10-02T09:03:17.951Z,1000.89
2017-10-02T09:04:19.378Z,1000.84
2017-10-02T09:05:20.806Z,1000.89
2017-10-02T09:06:22.218Z,1000.90
2017-10-02T09:07:23.649Z,1000.98
2017-10-02T09:08:25.068Z,1001.03
2017-10-02T09:09:26.517Z,1001.03
2017-10-02T09:10:27.916Z,1001.07
2017-10-02T09:11:29.351Z,1001.11
2017-10-02T09:12:30.771Z,1001.11
2017-10-02T09:13:32.214Z,1001.17
2017-10-02T09:14:33.632Z,1001.12
2017-10-02T09:15:35.048Z,1001.14
2017-10-02T09:16:36.471Z,1001.15
2017-10-02T09:17:37.901Z,1001.10
2017-10-02T09:18:39.321Z,1001.18
2017-10-02T09:19:40.748Z,1001.12
2017-10-02T09:20:42.191Z,1001.14
2017-10-02T09:21:43.617Z,1001.17
2017-10-02T09:22:45.044Z,1001.15
2017-10-02T09:23:46.465Z,1001.15
2017-10-02T09:24:47.899Z,1001.15
2017-10-02T09:25:49.320Z,1001.14
2017-10-02T09:26:50.756Z,1001.22
2017-10-02T09:27:52.194Z,1001.21
2017-10-02T09:28:53.623Z,1001.27
2017-10-02T09:29:55.060Z,1001.24
2017-10-02T09:30:56.628Z,1001.32
2017-10-02T09:31:58.057Z,1001.36
2017-10-02T09:32:59.478Z,1001.38
2017-10-02T09:34:00.908Z,1001.27
2017-10-02T09:35:02.402Z,1001.35
2017-10-02T09:36:03.828Z,1001.36
2017-10-02T09:37:05.256Z,1001.36
2017-10-02T09:38:06.691Z,1001.36
2017-10-02T09:39:08.133Z,1001.38
2017-10-02T09:40:09.553Z,1001.37
2017-10-02T09:41:10.992Z,1001.33
2017-10-02T09:42:12.524Z,1001.37
2017-10-02T09:43:13.950Z,1001.31
2017-10-02T09:44:15.378Z,1001.26
2017-10-02T09:45:16.852Z,1001.27
2017-10-02T09:46:18.280Z,1001.27
2017-10-02T09:47:19.715Z,1001.26
2017-10-02T09:48:21.216Z,1001.29
2017-10-02T09:49:22.718Z,1001.22
2017-10-02T09:50:24.153Z,1001.17
2017-10-02T09:51:25.585Z,1001.08
2017-10-02T09:52:27.010Z,1001.07
2017-10-02T09:53:28.448Z,1001.12
2017-10-02T09:54:29.865Z,1001.10
2017-10-02T09:55:31.342Z,1000.92
2017-10-02T09:56:32.783Z,1000.95
2017-10-02T09:57:34.214Z,1000.96
2017-10-02T09:58:35.634Z,1000.77
2017-10-02T09:59:37.061Z,1000.80
2017-10-02T10:00:38.485Z,1000.84
2017-10-02T10:01:39.917Z,1000.77
2017-10-02T10:02:41.342Z,1000.67
2017-10-02T10:03:42.834Z,1000.56
2017-10-02T10:04:44.266Z,1000.62
2017-10-02T10:05:45.694Z,1000.52
2017-10-02T10:06:47.122Z,1000.51
2017-10-02T10:07:48.551Z,1000.39
2017-10-02T10:08:50.008Z,1000.43
2017-10-02T10:09:51.434Z,1000.38
2017-10-02T10:10:52.891Z,1000.40
2017-10-02T10:11:55.160Z,1000.35
2017-10-02T10:12:56.587Z,1000.38
2017-10-02T10:13:58.015Z,1000.47
2017-10-02T10:14:59.447Z,1000.38
2017-10-02T10:16:00.881Z,1000.46
2017-10-02T10:17:02.311Z,1000.43
2017-10-02T10:18:03.755Z,1000.46
2017-10-02T10:19:05.195Z,1000.52
2017-10-02T10:20:06.621Z,1000.47
2017-10-02T10:21:08.050Z,1000.43
2017-10-02T10:22:09.481Z,1000.53
2017-10-02T10:23:10.907Z,1000.60
2017-10-02T10:24:12.335Z,1000.61
2017-10-02T10:25:13.776Z,1000.62
2017-10-02T10:26:15.201Z,1000.68
2017-10-02T10:27:16.632Z,1000.74
2017-10-02T10:28:18.076Z,1000.77
2017-10-02T10:29:19.483Z,1000.75
2017-10-02T10:30:20.906Z,1000.85
2017-10-02T10:31:22.340Z,1000.92
2017-10-02T10:32:23.773Z,1000.95
2017-10-02T10:33:25.203Z,1001.02
2017-10-02T10:34:26.625Z,1000.97
2017-10-02T10:35:28.053Z,1001.08
2017-10-02T10:36:29.479Z,1001.03
2017-10-02T10:37:30.906Z,1001.12
2017-10-02T10:38:32.330Z,1001.11
2017-10-02T10:39:33.758Z,1001.16
2017-10-02T10:40:35.187Z,1001.11
2017-10-02T10:41:36.613Z,1001.16
2017-10-02T10:42:38.039Z,1001.22
2017-10-02T10:43:39.478Z,1001.25
2017-10-02T10:44:40.895Z,1001.30
2017-10-02T10:45:42.919Z,1001.19
2017-10-02T10:46:44.346Z,1001.38
2017-10-02T10:47:45.774Z,1001.28
2017-10-02T10:48:47.206Z,1001.23
2017-10-02T10:49:48.626Z,1001.26
2017-10-02T10:50:50.050Z,1001.20
2017-10-02T10:51:51.492Z,1001.23
2017-10-02T10:52:52.920Z,1001.30
2017-10-02T10:53:54.350Z,1001.27
2017-10-02T10:54:55.777Z,1001.31
2017-10-02T10:55:57.202Z,1001.28
2017-10-02T10:56:58.641Z,1001.36
2017-10-02T10:58:00.062Z,1001.36
2017-10-02T10:59:01.489Z,1001.26
2017-10-02T11:00:02.927Z,1001.30
2017-10-02T11:01:04.353Z,1001.28
2017-10-02T11:02:05.793Z,1001.31
2017-10-02T11:03:07.228Z,1001.28
2017-10-02T11:04:08.659Z,1001.30
2017-10-02T11:05:10.084Z,1001.37
2017-10-02T11:06:11.505Z,1001.34
2017-10-02T11:07:12.937Z,1001.37
2017-10-02T11:08:14.375Z,1001.34
2017-10-02T11:09:15.802Z,1001.30
2017-10-02T11:10:17.241Z,1001.34
2017-10-02T11:11:18.683Z,1001.42
2017-10-02T11:12:20.118Z,1001.35
2017-10-02T11:13:21.552Z,1001.42
2017-10-02T11:14:22.964Z,1001.39
2017-10-02T11:15:24.393Z,1001.39
2017-10-02T11:16:25.826Z,1001.43
2017-10-02T11:17:27.249Z,1001.52
2017-10-02T11:18:28.683Z,1001.46
2017-10-02T11:19:30.115Z,1001.48
2017-10-02T11:20:31.549Z,1001.37
2017-10-02T11:21:32.976Z,1001.48
2017-10-02T11:22:34.395Z,1001.49
2017-10-02T11:23:35.826Z,1001.47
2017-10-02T11:24:37.255Z,1001.48
2017-10-02T11:25:38.679Z,1001.44
2017-10-02T11:26:40.109Z,1001.45
2017-10-02T11:27:41.537Z,1001.45
2017-10-02T11:28:42.969Z,1001.41
2017-10-02T11:29:44.394Z,1001.53
2017-10-02T11:30:45.830Z,1001.30
2017-10-02T11:31:47.260Z,1001.33
2017-10-02T11:32:48.674Z,1001.29
2017-10-02T11:33:50.119Z,1001.34
2017-10-02T11:34:51.550Z,1001.39
2017-10-02T11:35:52.968Z,1001.26
2017-10-02T11:36:54.404Z,1001.44
2017-10-02T11:37:55.832Z,1001.39
2017-10-02T11:38:57.263Z,1001.42
2017-10-02T11:39:58.760Z,1001.48
2017-10-02T11:41:00.182Z,1001.42
2017-10-02T11:42:01.629Z,1001.50
2017-10-02T11:43:03.056Z,1001.56
2017-10-02T11:44:04.492Z,1001.57
2017-10-02T11:45:05.913Z,1001.73
2017-10-02T11:46:07.357Z,1001.71
2017-10-02T11:47:08.788Z,1001.79
2017-10-02T11:48:10.221Z,1001.97
2017-10-02T11:49:11.659Z,1002.16
2017-10-02T11:50:13.090Z,1002.34
2017-10-02T11:51:14.527Z,1002.39
2017-10-02T11:52:15.957Z,1002.43
2017-10-02T11:53:17.382Z,1002.08
2017-10-02T11:54:18.810Z,1002.11
2017-10-02T11:55:20.291Z,1002.37
2017-10-02T11:56:21.738Z,1002.46
2017-10-02T11:57:23.172Z,1002.38
2017-10-02T11:58:24.605Z,1002.40
2017-10-02T11:59:26.034Z,1002.06
2017-10-02T12:00:27.465Z,1002.09
2017-10-02T12:01:28.894Z,1002.17
2017-10-02T12:02:30.331Z,1002.10
2017-10-02T12:03:31.786Z,1002.03
2017-10-02T12:04:33.227Z,1002.11
2017-10-02T12:05:34.679Z,1002.14
2017-10-02T12:06:36.123Z,1002.14
2017-10-02T12:07:37.555Z,1002.17
2017-10-02T12:08:38.994Z,1002.39
2017-10-02T12:09:40.461Z,1002.47
2017-10-02T12:10:41.899Z,1002.61
2017-10-02T12:11:43.327Z,1002.66
2017-10-02T12:12:44.760Z,1002.60
2017-10-02T12:13:46.266Z,1002.64
2017-10-02T12:14:47.701Z,1002.71
2017-10-02T12:15:49.130Z,1002.70
2017-10-02T12:16:50.569Z,1002.74
2017-10-02T12:17:52.003Z,1002.82
2017-10-02T12:18:53.437Z,1002.76
2017-10-02T12:19:54.875Z,1002.81
2017-10-02T12:20:56.306Z,1002.52
2017-10-02T12:21:57.732Z,1002.49
2017-10-02T12:22:59.169Z,1002.49
2017-10-02T12:24:00.606Z,1002.40
2017-10-02T12:25:02.047Z,1002.38